sensor_id;sensor_type;location;lat;lon;timestamp;temperature;humidity
71731;DHT22;65964;43.496;3.710;2022-12-10T00:01:18;8.70;87.80
71731;DHT22;65964;43.496;3.710;2022-12-10T00:03:45;8.70;87.80
71731;DHT22;65964;43.496;3.710;2022-12-10T00:06:16;8.60;87.70
71731;DHT22;65964;43.496;3.710;2022-12-10T00:08:42;8.60;87.70
71731;DHT22;65964;43.496;3.710;2022-12-10T00:11:10;8.60;87.70
71731;DHT22;65964;43.496;3.710;2022-12-10T00:13:37;8.60;87.80
71731;DHT22;65964;43.496;3.710;2022-12-10T00:16:05;8.60;87.70
71731;DHT22;65964;43.496;3.710;2022-12-10T00:18:31;8.60;87.70
71731;DHT22;65964;43.496;3.710;2022-12-10T00:20:57;8.50;87.70
71731;DHT22;65964;43.496;3.710;2022-12-10T00:23:23;8.40;87.60
71731;DHT22;65964;43.496;3.710;2022-12-10T00:25:50;8.40;87.60
71731;DHT22;65964;43.496;3.710;2022-12-10T00:28:15;8.30;87.70
71731;DHT22;65964;43.496;3.710;2022-12-10T00:30:41;8.30;87.60
71731;DHT22;65964;43.496;3.710;2022-12-10T00:33:07;8.30;87.60
71731;DHT22;65964;43.496;3.710;2022-12-10T00:35:36;8.20;87.60
71731;DHT22;65964;43.496;3.710;2022-12-10T00:38:02;8.20;87.70
71731;DHT22;65964;43.496;3.710;2022-12-10T00:40:28;8.20;87.70
71731;DHT22;65964;43.496;3.710;2022-12-10T00:42:54;8.20;87.60
71731;DHT22;65964;43.496;3.710;2022-12-10T00:45:20;8.20;87.60
71731;DHT22;65964;43.496;3.710;2022-12-10T00:47:45;8.10;87.60
71731;DHT22;65964;43.496;3.710;2022-12-10T00:50:11;8.10;87.60
71731;DHT22;65964;43.496;3.710;2022-12-10T00:52:37;8.00;87.60
71731;DHT22;65964;43.496;3.710;2022-12-10T00:55:02;8.00;87.60
71731;DHT22;65964;43.496;3.710;2022-12-10T00:57:28;8.00;87.50
71731;DHT22;65964;43.496;3.710;2022-12-10T00:59:54;7.90;87.50
71731;DHT22;65964;43.496;3.710;2022-12-10T01:02:20;7.90;87.50
71731;DHT22;65964;43.496;3.710;2022-12-10T01:04:46;7.90;87.40
71731;DHT22;65964;43.496;3.710;2022-12-10T01:07:12;7.80;87.50
71731;DHT22;65964;43.496;3.710;2022-12-10T01:09:39;7.80;87.40
71731;DHT22;65964;43.496;3.710;2022-12-10T01:12:05;7.80;87.40
71731;DHT22;65964;43.496;3.710;2022-12-10T01:14:32;7.70;87.40
71731;DHT22;65964;43.496;3.710;2022-12-10T01:17:01;7.70;87.40
71731;DHT22;65964;43.496;3.710;2022-12-10T01:19:32;7.60;87.40
71731;DHT22;65964;43.496;3.710;2022-12-10T01:21:58;7.60;87.30
71731;DHT22;65964;43.496;3.710;2022-12-10T01:24:25;7.60;87.40
71731;DHT22;65964;43.496;3.710;2022-12-10T01:26:52;7.60;87.40
71731;DHT22;65964;43.496;3.710;2022-12-10T01:29:18;7.50;87.30
71731;DHT22;65964;43.496;3.710;2022-12-10T01:31:44;7.60;87.40
71731;DHT22;65964;43.496;3.710;2022-12-10T01:34:12;7.60;87.60
71731;DHT22;65964;43.496;3.710;2022-12-10T01:36:44;7.70;87.60
71731;DHT22;65964;43.496;3.710;2022-12-10T01:39:13;7.70;87.60
71731;DHT22;65964;43.496;3.710;2022-12-10T01:41:46;7.80;87.60
71731;DHT22;65964;43.496;3.710;2022-12-10T01:46:38;7.80;87.40
71731;DHT22;65964;43.496;3.710;2022-12-10T01:49:10;7.80;87.50
71731;DHT22;65964;43.496;3.710;2022-12-10T01:51:38;7.80;87.50
71731;DHT22;65964;43.496;3.710;2022-12-10T01:54:07;7.80;87.50
71731;DHT22;65964;43.496;3.710;2022-12-10T01:56:36;7.90;87.60
71731;DHT22;65964;43.496;3.710;2022-12-10T01:59:03;7.90;87.50
71731;DHT22;65964;43.496;3.710;2022-12-10T02:09:04;8.10;87.40
71731;DHT22;65964;43.496;3.710;2022-12-10T02:14:19;8.20;87.40
71731;DHT22;65964;43.496;3.710;2022-12-10T02:16:59;8.20;87.10
71731;DHT22;65964;43.496;3.710;2022-12-10T02:19:51;8.10;86.90
71731;DHT22;65964;43.496;3.710;2022-12-10T02:22:19;8.00;86.70
71731;DHT22;65964;43.496;3.710;2022-12-10T02:24:47;8.00;86.60
71731;DHT22;65964;43.496;3.710;2022-12-10T02:27:23;7.90;86.80
71731;DHT22;65964;43.496;3.710;2022-12-10T02:29:52;7.90;86.70
71731;DHT22;65964;43.496;3.710;2022-12-10T02:32:24;7.90;86.80
71731;DHT22;65964;43.496;3.710;2022-12-10T02:34:55;7.90;86.90
71731;DHT22;65964;43.496;3.710;2022-12-10T02:37:31;7.90;87.10
71731;DHT22;65964;43.496;3.710;2022-12-10T02:39:59;7.90;86.80
71731;DHT22;65964;43.496;3.710;2022-12-10T02:42:29;8.00;86.90
71731;DHT22;65964;43.496;3.710;2022-12-10T02:44:56;8.00;86.80
71731;DHT22;65964;43.496;3.710;2022-12-10T02:47:22;8.00;86.70
71731;DHT22;65964;43.496;3.710;2022-12-10T02:49:52;8.00;86.60
71731;DHT22;65964;43.496;3.710;2022-12-10T02:52:19;7.90;86.50
71731;DHT22;65964;43.496;3.710;2022-12-10T02:54:48;7.90;86.50
71731;DHT22;65964;43.496;3.710;2022-12-10T03:00:16;7.90;86.50
71731;DHT22;65964;43.496;3.710;2022-12-10T03:03:09;8.00;86.70
71731;DHT22;65964;43.496;3.710;2022-12-10T03:06:08;8.00;86.70
71731;DHT22;65964;43.496;3.710;2022-12-10T03:11:19;8.10;86.40
71731;DHT22;65964;43.496;3.710;2022-12-10T03:16:39;8.20;86.20
71731;DHT22;65964;43.496;3.710;2022-12-10T03:19:11;8.20;86.10
71731;DHT22;65964;43.496;3.710;2022-12-10T03:21:38;8.10;85.80
71731;DHT22;65964;43.496;3.710;2022-12-10T03:24:06;8.10;85.90
71731;DHT22;65964;43.496;3.710;2022-12-10T03:26:32;8.10;85.80
71731;DHT22;65964;43.496;3.710;2022-12-10T03:29:13;8.10;85.90
71731;DHT22;65964;43.496;3.710;2022-12-10T03:31:40;8.10;85.90
71731;DHT22;65964;43.496;3.710;2022-12-10T03:34:07;8.10;86.00
71731;DHT22;65964;43.496;3.710;2022-12-10T03:36:35;8.10;86.00
71731;DHT22;65964;43.496;3.710;2022-12-10T03:39:01;8.10;86.00
71731;DHT22;65964;43.496;3.710;2022-12-10T03:41:27;8.00;85.90
71731;DHT22;65964;43.496;3.710;2022-12-10T03:43:55;8.00;86.00
71731;DHT22;65964;43.496;3.710;2022-12-10T03:46:23;7.90;85.90
71731;DHT22;65964;43.496;3.710;2022-12-10T03:48:50;7.90;86.00
71731;DHT22;65964;43.496;3.710;2022-12-10T03:51:16;8.00;86.00
71731;DHT22;65964;43.496;3.710;2022-12-10T03:53:41;8.00;86.20
71731;DHT22;65964;43.496;3.710;2022-12-10T03:56:07;8.10;86.50
71731;DHT22;65964;43.496;3.710;2022-12-10T03:58:33;8.20;86.70
71731;DHT22;65964;43.496;3.710;2022-12-10T04:00:59;8.30;86.40
71731;DHT22;65964;43.496;3.710;2022-12-10T04:03:24;8.30;86.20
71731;DHT22;65964;43.496;3.710;2022-12-10T04:05:50;8.30;86.00
71731;DHT22;65964;43.496;3.710;2022-12-10T04:08:16;8.20;85.90
71731;DHT22;65964;43.496;3.710;2022-12-10T04:10:41;8.20;85.70
71731;DHT22;65964;43.496;3.710;2022-12-10T04:13:07;8.10;85.80
71731;DHT22;65964;43.496;3.710;2022-12-10T04:15:51;8.10;85.70
71731;DHT22;65964;43.496;3.710;2022-12-10T04:18:35;8.10;85.90
71731;DHT22;65964;43.496;3.710;2022-12-10T04:21:01;8.00;85.90
71731;DHT22;65964;43.496;3.710;2022-12-10T04:23:45;8.00;85.80
71731;DHT22;65964;43.496;3.710;2022-12-10T04:26:29;8.00;86.10
71731;DHT22;65964;43.496;3.710;2022-12-10T04:29:13;8.00;86.40
71731;DHT22;65964;43.496;3.710;2022-12-10T04:31:39;8.00;86.20
71731;DHT22;65964;43.496;3.710;2022-12-10T04:34:05;8.10;86.20
71731;DHT22;65964;43.496;3.710;2022-12-10T04:36:30;8.10;86.20
71731;DHT22;65964;43.496;3.710;2022-12-10T04:38:56;8.10;86.20
71731;DHT22;65964;43.496;3.710;2022-12-10T04:41:22;8.10;86.10
71731;DHT22;65964;43.496;3.710;2022-12-10T04:43:47;8.10;86.10
71731;DHT22;65964;43.496;3.710;2022-12-10T04:46:13;8.10;86.00
71731;DHT22;65964;43.496;3.710;2022-12-10T04:48:39;8.00;85.90
71731;DHT22;65964;43.496;3.710;2022-12-10T04:51:04;8.00;86.00
71731;DHT22;65964;43.496;3.710;2022-12-10T04:53:30;7.90;85.90
71731;DHT22;65964;43.496;3.710;2022-12-10T04:55:56;7.90;86.00
71731;DHT22;65964;43.496;3.710;2022-12-10T04:58:21;7.90;86.20
71731;DHT22;65964;43.496;3.710;2022-12-10T05:00:47;7.90;86.00
71731;DHT22;65964;43.496;3.710;2022-12-10T05:03:13;7.90;86.10
71731;DHT22;65964;43.496;3.710;2022-12-10T05:05:38;7.90;85.90
71731;DHT22;65964;43.496;3.710;2022-12-10T05:08:04;7.80;85.70
71731;DHT22;65964;43.496;3.710;2022-12-10T05:10:30;7.80;85.80
71731;DHT22;65964;43.496;3.710;2022-12-10T05:12:56;7.80;85.90
71731;DHT22;65964;43.496;3.710;2022-12-10T05:15:21;7.90;85.80
71731;DHT22;65964;43.496;3.710;2022-12-10T05:17:47;7.90;85.50
71731;DHT22;65964;43.496;3.710;2022-12-10T05:20:13;7.90;85.60
71731;DHT22;65964;43.496;3.710;2022-12-10T05:22:38;7.90;85.50
71731;DHT22;65964;43.496;3.710;2022-12-10T05:25:23;7.90;85.50
71731;DHT22;65964;43.496;3.710;2022-12-10T05:27:49;8.00;85.70
71731;DHT22;65964;43.496;3.710;2022-12-10T05:30:14;8.00;85.50
71731;DHT22;65964;43.496;3.710;2022-12-10T05:32:40;7.90;85.60
71731;DHT22;65964;43.496;3.710;2022-12-10T05:35:06;7.90;85.50
71731;DHT22;65964;43.496;3.710;2022-12-10T05:37:32;7.90;85.50
71731;DHT22;65964;43.496;3.710;2022-12-10T05:39:58;8.00;85.70
71731;DHT22;65964;43.496;3.710;2022-12-10T05:42:23;8.00;85.40
71731;DHT22;65964;43.496;3.710;2022-12-10T05:44:49;8.10;85.20
71731;DHT22;65964;43.496;3.710;2022-12-10T05:47:14;8.20;84.80
71731;DHT22;65964;43.496;3.710;2022-12-10T05:49:40;8.20;84.20
71731;DHT22;65964;43.496;3.710;2022-12-10T05:52:06;8.20;83.90
71731;DHT22;65964;43.496;3.710;2022-12-10T05:54:31;8.30;84.00
71731;DHT22;65964;43.496;3.710;2022-12-10T05:56:57;8.20;83.80
71731;DHT22;65964;43.496;3.710;2022-12-10T05:59:23;8.20;83.80
71731;DHT22;65964;43.496;3.710;2022-12-10T06:01:48;8.10;83.50
71731;DHT22;65964;43.496;3.710;2022-12-10T06:04:14;8.10;83.70
71731;DHT22;65964;43.496;3.710;2022-12-10T06:06:40;8.10;83.60
71731;DHT22;65964;43.496;3.710;2022-12-10T06:09:11;8.10;83.60
71731;DHT22;65964;43.496;3.710;2022-12-10T06:11:37;8.20;83.60
71731;DHT22;65964;43.496;3.710;2022-12-10T06:14:02;8.20;83.30
71731;DHT22;65964;43.496;3.710;2022-12-10T06:16:29;8.30;83.40
71731;DHT22;65964;43.496;3.710;2022-12-10T06:18:55;8.30;82.90
71731;DHT22;65964;43.496;3.710;2022-12-10T06:21:21;8.30;82.90
71731;DHT22;65964;43.496;3.710;2022-12-10T06:23:48;8.40;82.50
71731;DHT22;65964;43.496;3.710;2022-12-10T06:26:20;8.30;82.20
71731;DHT22;65964;43.496;3.710;2022-12-10T06:28:47;8.40;82.00
71731;DHT22;65964;43.496;3.710;2022-12-10T06:31:13;8.40;81.60
71731;DHT22;65964;43.496;3.710;2022-12-10T06:33:40;8.40;81.10
71731;DHT22;65964;43.496;3.710;2022-12-10T06:36:07;8.30;81.20
71731;DHT22;65964;43.496;3.710;2022-12-10T06:38:34;8.20;81.00
71731;DHT22;65964;43.496;3.710;2022-12-10T06:41:00;8.20;81.00
71731;DHT22;65964;43.496;3.710;2022-12-10T06:43:29;8.10;81.30
71731;DHT22;65964;43.496;3.710;2022-12-10T06:45:55;8.00;81.20
71731;DHT22;65964;43.496;3.710;2022-12-10T06:48:20;7.90;81.30
71731;DHT22;65964;43.496;3.710;2022-12-10T06:50:46;7.90;81.30
71731;DHT22;65964;43.496;3.710;2022-12-10T06:53:12;7.90;81.10
71731;DHT22;65964;43.496;3.710;2022-12-10T06:55:37;7.80;81.40
71731;DHT22;65964;43.496;3.710;2022-12-10T06:58:06;7.80;81.30
71731;DHT22;65964;43.496;3.710;2022-12-10T07:00:32;7.80;81.00
71731;DHT22;65964;43.496;3.710;2022-12-10T07:02:57;7.80;80.60
71731;DHT22;65964;43.496;3.710;2022-12-10T07:05:23;7.80;80.00
71731;DHT22;65964;43.496;3.710;2022-12-10T07:07:49;7.80;79.30
71731;DHT22;65964;43.496;3.710;2022-12-10T07:10:14;7.90;76.60
71731;DHT22;65964;43.496;3.710;2022-12-10T07:12:40;8.00;73.40
71731;DHT22;65964;43.496;3.710;2022-12-10T07:15:06;8.10;71.00
71731;DHT22;65964;43.496;3.710;2022-12-10T07:17:32;8.20;69.90
71731;DHT22;65964;43.496;3.710;2022-12-10T07:19:58;8.20;69.50
71731;DHT22;65964;43.496;3.710;2022-12-10T07:22:24;8.30;68.50
71731;DHT22;65964;43.496;3.710;2022-12-10T07:24:50;8.30;67.10
71731;DHT22;65964;43.496;3.710;2022-12-10T07:27:15;8.30;66.50
71731;DHT22;65964;43.496;3.710;2022-12-10T07:29:41;8.30;66.30
71731;DHT22;65964;43.496;3.710;2022-12-10T07:32:07;8.30;65.90
71731;DHT22;65964;43.496;3.710;2022-12-10T07:34:32;8.30;64.90
71731;DHT22;65964;43.496;3.710;2022-12-10T07:36:58;8.30;64.80
71731;DHT22;65964;43.496;3.710;2022-12-10T07:39:24;8.20;65.60
71731;DHT22;65964;43.496;3.710;2022-12-10T07:41:51;8.20;65.10
71731;DHT22;65964;43.496;3.710;2022-12-10T07:44:19;8.20;65.10
71731;DHT22;65964;43.496;3.710;2022-12-10T07:46:47;8.20;65.50
71731;DHT22;65964;43.496;3.710;2022-12-10T07:49:13;8.10;66.40
71731;DHT22;65964;43.496;3.710;2022-12-10T07:51:39;8.30;66.10
71731;DHT22;65964;43.496;3.710;2022-12-10T07:54:05;8.70;65.50
71731;DHT22;65964;43.496;3.710;2022-12-10T07:56:31;9.10;65.40
71731;DHT22;65964;43.496;3.710;2022-12-10T07:58:56;9.30;64.50
71731;DHT22;65964;43.496;3.710;2022-12-10T08:01:26;9.20;65.20
71731;DHT22;65964;43.496;3.710;2022-12-10T08:03:53;9.40;64.60
71731;DHT22;65964;43.496;3.710;2022-12-10T08:06:20;9.60;64.20
71731;DHT22;65964;43.496;3.710;2022-12-10T08:08:46;9.80;62.40
71731;DHT22;65964;43.496;3.710;2022-12-10T08:11:14;9.80;60.50
71731;DHT22;65964;43.496;3.710;2022-12-10T08:13:41;9.90;59.70
71731;DHT22;65964;43.496;3.710;2022-12-10T08:16:15;10.00;58.50
71731;DHT22;65964;43.496;3.710;2022-12-10T08:18:42;10.10;58.70
71731;DHT22;65964;43.496;3.710;2022-12-10T08:21:11;10.20;58.10
71731;DHT22;65964;43.496;3.710;2022-12-10T08:23:37;10.30;57.30
71731;DHT22;65964;43.496;3.710;2022-12-10T08:26:04;10.50;56.20
71731;DHT22;65964;43.496;3.710;2022-12-10T08:28:30;10.50;56.40
71731;DHT22;65964;43.496;3.710;2022-12-10T08:30:56;10.50;56.30
71731;DHT22;65964;43.496;3.710;2022-12-10T08:33:21;10.70;55.80
71731;DHT22;65964;43.496;3.710;2022-12-10T08:35:47;10.90;54.90
71731;DHT22;65964;43.496;3.710;2022-12-10T08:38:13;11.20;54.80
71731;DHT22;65964;43.496;3.710;2022-12-10T08:40:40;11.10;53.50
71731;DHT22;65964;43.496;3.710;2022-12-10T08:43:06;11.10;54.50
71731;DHT22;65964;43.496;3.710;2022-12-10T08:45:31;11.00;53.30
71731;DHT22;65964;43.496;3.710;2022-12-10T08:47:57;10.90;53.10
71731;DHT22;65964;43.496;3.710;2022-12-10T08:50:23;10.80;53.20
71731;DHT22;65964;43.496;3.710;2022-12-10T08:52:48;10.70;53.00
71731;DHT22;65964;43.496;3.710;2022-12-10T08:55:14;10.70;53.50
71731;DHT22;65964;43.496;3.710;2022-12-10T08:57:40;10.50;53.30
71731;DHT22;65964;43.496;3.710;2022-12-10T09:00:06;10.50;53.00
71731;DHT22;65964;43.496;3.710;2022-12-10T09:02:32;10.20;52.80
71731;DHT22;65964;43.496;3.710;2022-12-10T09:04:58;10.10;53.30
71731;DHT22;65964;43.496;3.710;2022-12-10T09:07:24;10.00;53.00
71731;DHT22;65964;43.496;3.710;2022-12-10T09:09:50;9.90;53.10
71731;DHT22;65964;43.496;3.710;2022-12-10T09:12:15;9.70;53.60
71731;DHT22;65964;43.496;3.710;2022-12-10T09:14:41;9.80;52.90
71731;DHT22;65964;43.496;3.710;2022-12-10T09:17:07;9.90;52.60
71731;DHT22;65964;43.496;3.710;2022-12-10T09:19:33;9.80;52.50
71731;DHT22;65964;43.496;3.710;2022-12-10T09:21:59;9.70;52.30
71731;DHT22;65964;43.496;3.710;2022-12-10T09:24:25;9.40;52.50
71731;DHT22;65964;43.496;3.710;2022-12-10T09:26:51;9.30;53.30
71731;DHT22;65964;43.496;3.710;2022-12-10T09:29:17;9.10;53.40
71731;DHT22;65964;43.496;3.710;2022-12-10T09:31:42;8.90;54.10
71731;DHT22;65964;43.496;3.710;2022-12-10T09:34:08;8.90;53.90
71731;DHT22;65964;43.496;3.710;2022-12-10T09:36:34;8.80;54.50
71731;DHT22;65964;43.496;3.710;2022-12-10T09:39:00;8.90;53.70
71731;DHT22;65964;43.496;3.710;2022-12-10T09:44:30;9.10;52.50
71731;DHT22;65964;43.496;3.710;2022-12-10T09:47:02;9.20;52.40
71731;DHT22;65964;43.496;3.710;2022-12-10T09:52:25;9.50;51.90
71731;DHT22;65964;43.496;3.710;2022-12-10T09:54:58;9.50;51.70
71731;DHT22;65964;43.496;3.710;2022-12-10T09:57:38;9.50;51.50
71731;DHT22;65964;43.496;3.710;2022-12-10T10:02:45;9.30;51.40
71731;DHT22;65964;43.496;3.710;2022-12-10T10:05:20;9.20;50.90
71731;DHT22;65964;43.496;3.710;2022-12-10T10:10:39;9.40;50.30
71731;DHT22;65964;43.496;3.710;2022-12-10T10:15:41;9.80;49.80
71731;DHT22;65964;43.496;3.710;2022-12-10T10:18:38;10.00;49.70
71731;DHT22;65964;43.496;3.710;2022-12-10T10:21:20;10.20;49.00
71731;DHT22;65964;43.496;3.710;2022-12-10T10:23:47;10.40;48.70
71731;DHT22;65964;43.496;3.710;2022-12-10T10:26:13;10.30;48.50
71731;DHT22;65964;43.496;3.710;2022-12-10T10:28:40;10.30;48.50
71731;DHT22;65964;43.496;3.710;2022-12-10T10:31:20;10.10;48.40
71731;DHT22;65964;43.496;3.710;2022-12-10T10:33:52;9.90;48.60
71731;DHT22;65964;43.496;3.710;2022-12-10T10:36:36;9.90;48.70
71731;DHT22;65964;43.496;3.710;2022-12-10T10:41:53;9.80;49.90
71731;DHT22;65964;43.496;3.710;2022-12-10T10:44:21;9.60;49.40
71731;DHT22;65964;43.496;3.710;2022-12-10T10:46:50;9.60;50.10
71731;DHT22;65964;43.496;3.710;2022-12-10T10:52:13;9.40;50.00
71731;DHT22;65964;43.496;3.710;2022-12-10T10:54:43;9.30;50.50
71731;DHT22;65964;43.496;3.710;2022-12-10T10:57:29;9.20;50.50
71731;DHT22;65964;43.496;3.710;2022-12-10T11:00:05;9.10;50.50
71731;DHT22;65964;43.496;3.710;2022-12-10T11:02:37;8.90;50.80
71731;DHT22;65964;43.496;3.710;2022-12-10T11:05:19;9.00;50.60
71731;DHT22;65964;43.496;3.710;2022-12-10T11:07:45;8.90;50.50
71731;DHT22;65964;43.496;3.710;2022-12-10T11:10:19;9.10;50.30
71731;DHT22;65964;43.496;3.710;2022-12-10T11:12:55;9.10;50.00
71731;DHT22;65964;43.496;3.710;2022-12-10T11:15:45;9.10;49.90
71731;DHT22;65964;43.496;3.710;2022-12-10T11:23:53;9.30;49.00
71731;DHT22;65964;43.496;3.710;2022-12-10T11:37:40;9.20;49.50
71731;DHT22;65964;43.496;3.710;2022-12-10T11:51:30;8.90;49.70
71731;DHT22;65964;43.496;3.710;2022-12-10T11:56:47;8.90;49.70
71731;DHT22;65964;43.496;3.710;2022-12-10T12:04:39;8.70;49.40
71731;DHT22;65964;43.496;3.710;2022-12-10T12:12:41;8.50;49.70
71731;DHT22;65964;43.496;3.710;2022-12-10T12:17:44;8.50;49.50
71731;DHT22;65964;43.496;3.710;2022-12-10T12:20:16;8.50;49.90
71731;DHT22;65964;43.496;3.710;2022-12-10T12:22:47;8.60;49.60
71731;DHT22;65964;43.496;3.710;2022-12-10T12:25:16;8.50;49.80
71731;DHT22;65964;43.496;3.710;2022-12-10T12:27:48;8.60;49.60
71731;DHT22;65964;43.496;3.710;2022-12-10T12:30:19;8.50;49.20
71731;DHT22;65964;43.496;3.710;2022-12-10T12:35:39;8.50;49.90
71731;DHT22;65964;43.496;3.710;2022-12-10T12:41:06;8.50;49.50
71731;DHT22;65964;43.496;3.710;2022-12-10T12:46:05;8.40;49.80
71731;DHT22;65964;43.496;3.710;2022-12-10T12:48:44;8.40;49.80
71731;DHT22;65964;43.496;3.710;2022-12-10T12:53:50;8.40;49.80
71731;DHT22;65964;43.496;3.710;2022-12-10T13:01:53;8.30;50.00
71731;DHT22;65964;43.496;3.710;2022-12-10T13:04:20;8.30;49.60
71731;DHT22;65964;43.496;3.710;2022-12-10T13:12:48;8.20;49.80
71731;DHT22;65964;43.496;3.710;2022-12-10T13:15:32;8.20;50.00
71731;DHT22;65964;43.496;3.710;2022-12-10T13:21:28;8.10;49.60
71731;DHT22;65964;43.496;3.710;2022-12-10T13:24:09;8.10;50.10
71731;DHT22;65964;43.496;3.710;2022-12-10T13:26:36;8.10;50.20
71731;DHT22;65964;43.496;3.710;2022-12-10T13:29:23;8.00;50.00
71731;DHT22;65964;43.496;3.710;2022-12-10T13:32:22;8.00;50.10
71731;DHT22;65964;43.496;3.710;2022-12-10T13:37:34;7.90;49.90
71731;DHT22;65964;43.496;3.710;2022-12-10T13:42:35;7.60;50.80
71731;DHT22;65964;43.496;3.710;2022-12-10T14:06:51;7.20;52.30
71731;DHT22;65964;43.496;3.710;2022-12-10T14:09:48;7.20;51.90
71731;DHT22;65964;43.496;3.710;2022-12-10T14:12:17;7.10;52.20
71731;DHT22;65964;43.496;3.710;2022-12-10T14:14:48;7.00;51.90
71731;DHT22;65964;43.496;3.710;2022-12-10T14:17:22;7.00;51.80
71731;DHT22;65964;43.496;3.710;2022-12-10T14:19:52;7.00;51.80
71731;DHT22;65964;43.496;3.710;2022-12-10T14:22:37;6.90;51.80
71731;DHT22;65964;43.496;3.710;2022-12-10T14:25:13;6.90;52.20
71731;DHT22;65964;43.496;3.710;2022-12-10T14:27:40;6.90;52.60
71731;DHT22;65964;43.496;3.710;2022-12-10T14:30:24;6.80;52.20
71731;DHT22;65964;43.496;3.710;2022-12-10T14:32:54;6.80;51.70
71731;DHT22;65964;43.496;3.710;2022-12-10T14:35:24;6.70;52.00
71731;DHT22;65964;43.496;3.710;2022-12-10T14:37:52;6.70;52.20
71731;DHT22;65964;43.496;3.710;2022-12-10T14:40:23;6.70;52.40
71731;DHT22;65964;43.496;3.710;2022-12-10T14:42:52;6.60;52.10
71731;DHT22;65964;43.496;3.710;2022-12-10T14:45:20;6.60;52.50
71731;DHT22;65964;43.496;3.710;2022-12-10T14:47:47;6.60;52.30
71731;DHT22;65964;43.496;3.710;2022-12-10T14:50:15;6.60;52.70
71731;DHT22;65964;43.496;3.710;2022-12-10T14:52:44;6.50;52.70
71731;DHT22;65964;43.496;3.710;2022-12-10T14:55:19;6.50;52.60
71731;DHT22;65964;43.496;3.710;2022-12-10T14:57:54;6.40;52.90
71731;DHT22;65964;43.496;3.710;2022-12-10T15:00:21;6.30;53.30
71731;DHT22;65964;43.496;3.710;2022-12-10T15:02:53;6.30;53.40
71731;DHT22;65964;43.496;3.710;2022-12-10T15:05:31;6.30;53.70
71731;DHT22;65964;43.496;3.710;2022-12-10T15:08:13;6.30;53.40
71731;DHT22;65964;43.496;3.710;2022-12-10T15:10:43;6.30;53.30
71731;DHT22;65964;43.496;3.710;2022-12-10T15:13:32;6.20;53.60
71731;DHT22;65964;43.496;3.710;2022-12-10T15:15:59;6.20;53.40
71731;DHT22;65964;43.496;3.710;2022-12-10T15:18:32;6.10;53.70
71731;DHT22;65964;43.496;3.710;2022-12-10T15:23:31;6.10;53.70
71731;DHT22;65964;43.496;3.710;2022-12-10T15:34:00;5.80;54.00
71731;DHT22;65964;43.496;3.710;2022-12-10T15:39:03;5.70;54.00
71731;DHT22;65964;43.496;3.710;2022-12-10T15:41:35;5.70;53.90
71731;DHT22;65964;43.496;3.710;2022-12-10T15:44:23;5.60;54.10
71731;DHT22;65964;43.496;3.710;2022-12-10T15:47:01;5.60;54.50
71731;DHT22;65964;43.496;3.710;2022-12-10T15:49:29;5.60;54.30
71731;DHT22;65964;43.496;3.710;2022-12-10T15:51:55;5.50;54.40
71731;DHT22;65964;43.496;3.710;2022-12-10T15:54:43;5.40;54.50
71731;DHT22;65964;43.496;3.710;2022-12-10T15:57:33;5.40;54.30
71731;DHT22;65964;43.496;3.710;2022-12-10T16:00:10;5.30;55.00
71731;DHT22;65964;43.496;3.710;2022-12-10T16:05:27;5.20;55.00
71731;DHT22;65964;43.496;3.710;2022-12-10T16:07:56;5.10;55.30
71731;DHT22;65964;43.496;3.710;2022-12-10T16:10:24;5.10;55.30
71731;DHT22;65964;43.496;3.710;2022-12-10T16:13:00;5.00;55.40
71731;DHT22;65964;43.496;3.710;2022-12-10T16:15:30;4.90;55.90
71731;DHT22;65964;43.496;3.710;2022-12-10T16:17:56;4.90;56.00
71731;DHT22;65964;43.496;3.710;2022-12-10T16:20:25;4.90;55.90
71731;DHT22;65964;43.496;3.710;2022-12-10T16:22:53;4.80;55.80
71731;DHT22;65964;43.496;3.710;2022-12-10T16:25:20;4.80;56.20
71731;DHT22;65964;43.496;3.710;2022-12-10T16:27:46;4.80;56.10
71731;DHT22;65964;43.496;3.710;2022-12-10T16:30:23;4.70;56.50
71731;DHT22;65964;43.496;3.710;2022-12-10T16:32:49;4.70;56.60
71731;DHT22;65964;43.496;3.710;2022-12-10T16:35:16;4.60;56.70
71731;DHT22;65964;43.496;3.710;2022-12-10T16:37:44;4.50;56.60
71731;DHT22;65964;43.496;3.710;2022-12-10T16:40:14;4.50;56.70
71731;DHT22;65964;43.496;3.710;2022-12-10T16:42:40;4.50;56.80
71731;DHT22;65964;43.496;3.710;2022-12-10T16:45:16;4.40;56.80
71731;DHT22;65964;43.496;3.710;2022-12-10T16:47:42;4.40;56.70
71731;DHT22;65964;43.496;3.710;2022-12-10T16:50:08;4.40;56.80
71731;DHT22;65964;43.496;3.710;2022-12-10T16:52:34;4.40;57.10
71731;DHT22;65964;43.496;3.710;2022-12-10T16:55:00;4.40;56.90
71731;DHT22;65964;43.496;3.710;2022-12-10T16:57:27;4.40;56.90
71731;DHT22;65964;43.496;3.710;2022-12-10T16:59:53;4.30;56.90
71731;DHT22;65964;43.496;3.710;2022-12-10T17:02:18;4.30;56.90
71731;DHT22;65964;43.496;3.710;2022-12-10T17:04:46;4.30;56.70
71731;DHT22;65964;43.496;3.710;2022-12-10T17:07:13;4.30;56.80
71731;DHT22;65964;43.496;3.710;2022-12-10T17:09:39;4.30;56.90
71731;DHT22;65964;43.496;3.710;2022-12-10T17:12:06;4.30;56.90
71731;DHT22;65964;43.496;3.710;2022-12-10T17:14:38;4.20;57.10
71731;DHT22;65964;43.496;3.710;2022-12-10T17:17:05;4.20;57.00
71731;DHT22;65964;43.496;3.710;2022-12-10T17:19:34;4.20;57.00
71731;DHT22;65964;43.496;3.710;2022-12-10T17:22:01;4.20;57.20
71731;DHT22;65964;43.496;3.710;2022-12-10T17:24:27;4.20;57.40
71731;DHT22;65964;43.496;3.710;2022-12-10T17:27:02;4.20;56.90
71731;DHT22;65964;43.496;3.710;2022-12-10T17:29:33;4.10;57.20
71731;DHT22;65964;43.496;3.710;2022-12-10T17:32:02;4.10;57.30
71731;DHT22;65964;43.496;3.710;2022-12-10T17:34:27;4.10;57.20
71731;DHT22;65964;43.496;3.710;2022-12-10T17:36:53;4.10;57.20
71731;DHT22;65964;43.496;3.710;2022-12-10T17:39:21;4.10;57.40
71731;DHT22;65964;43.496;3.710;2022-12-10T17:41:47;4.00;57.40
71731;DHT22;65964;43.496;3.710;2022-12-10T17:44:12;4.00;57.50
71731;DHT22;65964;43.496;3.710;2022-12-10T17:46:38;4.00;57.40
71731;DHT22;65964;43.496;3.710;2022-12-10T17:49:04;4.00;57.50
71731;DHT22;65964;43.496;3.710;2022-12-10T17:51:30;4.00;57.50
71731;DHT22;65964;43.496;3.710;2022-12-10T17:53:57;4.00;57.50
71731;DHT22;65964;43.496;3.710;2022-12-10T17:56:25;3.90;57.30
71731;DHT22;65964;43.496;3.710;2022-12-10T17:58:54;3.90;57.30
71731;DHT22;65964;43.496;3.710;2022-12-10T18:01:20;3.90;57.30
71731;DHT22;65964;43.496;3.710;2022-12-10T18:03:47;3.90;57.20
71731;DHT22;65964;43.496;3.710;2022-12-10T18:08:45;4.00;56.70
71731;DHT22;65964;43.496;3.710;2022-12-10T18:11:13;4.00;56.90
71731;DHT22;65964;43.496;3.710;2022-12-10T18:13:39;3.90;57.20
71731;DHT22;65964;43.496;3.710;2022-12-10T18:16:14;3.90;57.10
71731;DHT22;65964;43.496;3.710;2022-12-10T18:18:40;3.90;56.90
71731;DHT22;65964;43.496;3.710;2022-12-10T18:21:07;3.80;57.20
71731;DHT22;65964;43.496;3.710;2022-12-10T18:23:33;3.90;56.80
71731;DHT22;65964;43.496;3.710;2022-12-10T18:25:59;3.80;57.00
71731;DHT22;65964;43.496;3.710;2022-12-10T18:30:54;3.80;57.10
71731;DHT22;65964;43.496;3.710;2022-12-10T18:33:21;3.80;57.30
71731;DHT22;65964;43.496;3.710;2022-12-10T18:35:47;3.90;57.00